createdAt,value
2019-05-20T00:00:16.722Z,94.04
2019-05-20T00:04:21.641Z,93.52
2019-05-20T00:08:26.524Z,93.78
2019-05-20T00:12:31.426Z,94.51
2019-05-20T00:16:37.177Z,95.12
2019-05-20T00:20:42.145Z,94.74
2019-05-20T00:24:47.047Z,94.20
2019-05-20T00:28:52.013Z,94.04
2019-05-20T00:32:56.980Z,93.93
2019-05-20T00:37:01.898Z,93.68
2019-05-20T00:41:06.793Z,93.29
2019-05-20T00:45:12.429Z,93.17
2019-05-20T00:49:17.335Z,93.68
2019-05-20T00:53:22.250Z,93.84
2019-05-20T00:57:27.140Z,93.21
2019-05-20T01:01:32.040Z,93.81
2019-05-20T01:05:36.932Z,92.85
2019-05-20T01:09:41.831Z,94.41
2019-05-20T01:13:46.729Z,94.08
2019-05-20T01:17:51.617Z,94.83
2019-05-20T01:21:56.513Z,94.69
2019-05-20T01:26:01.408Z,94.82
2019-05-20T01:30:08.512Z,95.16
2019-05-20T01:34:13.412Z,96.47
2019-05-20T01:38:18.317Z,96.29
2019-05-20T01:42:23.213Z,96.18
2019-05-20T01:46:28.110Z,96.27
2019-05-20T01:50:33.014Z,95.44
2019-05-20T01:54:37.917Z,95.55
2019-05-20T01:58:42.799Z,95.94
2019-05-20T02:02:48.659Z,96.26
2019-05-20T02:06:53.558Z,95.36
2019-05-20T02:10:58.451Z,95.16
2019-05-20T02:15:11.830Z,95.58
2019-05-20T02:19:16.725Z,96.08
2019-05-20T02:23:21.610Z,96.54
2019-05-20T02:27:26.504Z,96.75
2019-05-20T02:31:31.412Z,96.56
2019-05-20T02:35:36.301Z,96.83
2019-05-20T02:39:41.207Z,96.15
2019-05-20T02:43:46.094Z,96.43
2019-05-20T02:47:52.061Z,96.73
2019-05-20T02:51:56.964Z,97.95
2019-05-20T02:56:01.938Z,97.79
2019-05-20T03:00:07.784Z,97.75
2019-05-20T03:04:13.203Z,97.98
2019-05-20T03:08:18.229Z,98.79
2019-05-20T03:12:23.130Z,99.25
2019-05-20T03:16:28.024Z,99.32
2019-05-20T03:20:32.930Z,99.79
2019-05-20T03:24:37.814Z,99.53
2019-05-20T03:28:42.789Z,99.20
2019-05-20T03:32:47.682Z,98.77
2019-05-20T03:36:52.583Z,98.53
2019-05-20T03:40:57.470Z,98.35
2019-05-20T03:45:02.742Z,98.26
2019-05-20T03:49:08.613Z,97.80
2019-05-20T03:53:13.516Z,97.48
2019-05-20T03:57:18.411Z,97.24
2019-05-20T04:01:23.320Z,97.08
2019-05-20T04:05:28.201Z,96.70
2019-05-20T04:09:33.105Z,96.67
2019-05-20T04:13:38.570Z,96.32
2019-05-20T04:17:43.483Z,96.23
2019-05-20T04:21:48.381Z,96.16
2019-05-20T04:25:54.238Z,96.23
2019-05-20T04:29:59.141Z,96.03
2019-05-20T04:34:04.042Z,95.92
2019-05-20T04:38:08.937Z,96.25
2019-05-20T04:42:13.845Z,96.34
2019-05-20T04:46:18.744Z,96.29
2019-05-20T04:50:23.640Z,96.29
2019-05-20T04:54:28.544Z,95.88
2019-05-20T04:58:33.429Z,96.81
2019-05-20T05:02:38.328Z,97.51
2019-05-20T05:06:43.284Z,96.68
2019-05-20T05:10:49.790Z,96.44
2019-05-20T05:14:55.765Z,96.16
2019-05-20T05:19:00.660Z,95.98
2019-05-20T05:23:05.561Z,94.90
2019-05-20T05:27:10.456Z,94.79
2019-05-20T05:31:15.361Z,94.34
2019-05-20T05:35:20.592Z,93.28
2019-05-20T05:39:25.495Z,90.77
2019-05-20T05:43:30.388Z,90.77
2019-05-20T05:47:36.248Z,89.04
2019-05-20T05:51:41.143Z,89.04
2019-05-20T05:55:46.041Z,85.39
2019-05-20T05:59:50.939Z,84.94
2019-05-20T06:03:55.836Z,82.82
2019-05-20T06:08:00.733Z,78.85
2019-05-20T06:12:05.630Z,78.97
2019-05-20T06:16:10.540Z,79.94
2019-05-20T06:20:15.861Z,80.33
2019-05-20T06:24:20.762Z,79.96
2019-05-20T06:28:25.650Z,78.44
2019-05-20T06:32:30.550Z,79.99
2019-05-20T06:36:37.171Z,80.61
2019-05-20T06:40:42.065Z,81.09
2019-05-20T06:44:53.146Z,81.33
2019-05-20T06:48:53.618Z,81.48
2019-05-20T06:52:58.518Z,80.47
2019-05-20T06:57:03.485Z,79.62
2019-05-20T07:01:08.418Z,78.40
2019-05-20T07:05:13.392Z,76.54
2019-05-20T07:09:18.272Z,72.50
2019-05-20T07:13:23.175Z,70.14
2019-05-20T07:17:28.078Z,69.40
2019-05-20T07:21:32.986Z,70.45
2019-05-20T07:25:37.883Z,73.39
2019-05-20T07:29:42.852Z,75.68
2019-05-20T07:33:47.754Z,76.50
2019-05-20T07:37:52.657Z,75.50
2019-05-20T07:41:57.556Z,75.46
2019-05-20T07:46:03.104Z,74.92
2019-05-20T07:50:10.329Z,74.78
2019-05-20T07:54:16.070Z,75.18
2019-05-20T07:58:24.273Z,75.32
2019-05-20T08:02:30.144Z,74.65
2019-05-20T08:06:35.030Z,73.99
2019-05-20T08:10:39.900Z,72.94
2019-05-20T08:14:44.798Z,73.58
2019-05-20T08:18:49.712Z,72.33
2019-05-20T08:22:54.599Z,71.62
2019-05-20T08:26:59.492Z,72.34
2019-05-20T08:31:04.464Z,71.96
2019-05-20T08:35:09.889Z,71.85
2019-05-20T08:39:14.798Z,69.95
2019-05-20T08:43:19.698Z,69.99
2019-05-20T08:47:24.607Z,70.48
2019-05-20T08:51:29.861Z,71.15
2019-05-20T08:55:35.797Z,70.17
2019-05-20T08:59:40.653Z,69.19
2019-05-20T09:03:45.546Z,67.82
2019-05-20T09:08:02.440Z,65.50
2019-05-20T09:11:57.123Z,66.37
2019-05-20T09:16:02.089Z,65.42
2019-05-20T09:20:08.396Z,64.20
2019-05-20T09:24:18.071Z,64.61
2019-05-20T09:28:20.928Z,65.25
2019-05-20T09:32:25.766Z,66.14
2019-05-20T09:36:30.656Z,66.77
2019-05-20T09:40:40.329Z,68.82
2019-05-20T09:44:46.211Z,67.01
2019-05-20T09:48:51.111Z,67.44
2019-05-20T09:52:55.992Z,66.13
2019-05-20T09:57:00.877Z,65.42
2019-05-20T10:01:06.848Z,65.73
2019-05-20T10:05:11.747Z,67.07
2019-05-20T10:09:16.649Z,66.44
2019-05-20T10:13:21.541Z,65.92
2019-05-20T10:17:27.395Z,66.35
2019-05-20T10:21:32.294Z,66.30
2019-05-20T10:25:37.198Z,67.40
2019-05-20T10:29:43.063Z,67.47
2019-05-20T10:33:48.034Z,66.27
2019-05-20T10:37:52.923Z,65.44
2019-05-20T10:41:57.817Z,63.53
2019-05-20T10:46:02.797Z,61.23
2019-05-20T10:50:07.926Z,62.33
2019-05-20T10:54:12.827Z,60.06
2019-05-20T10:58:17.733Z,61.13
2019-05-20T11:02:22.635Z,61.06
2019-05-20T11:06:27.536Z,62.22
2019-05-20T11:10:32.434Z,62.36
2019-05-20T11:14:37.340Z,62.24
2019-05-20T11:18:42.227Z,61.39
2019-05-20T11:22:47.122Z,63.01
2019-05-20T11:26:52.028Z,63.69
2019-05-20T11:30:56.927Z,65.58
2019-05-20T11:35:02.299Z,63.67
2019-05-20T11:39:07.660Z,63.64
2019-05-20T11:43:12.552Z,63.78
2019-05-20T11:47:17.450Z,64.89
2019-05-20T11:51:22.353Z,64.87
2019-05-20T11:55:27.299Z,64.62
2019-05-20T11:59:32.157Z,66.21
2019-05-20T12:03:37.055Z,67.66
2019-05-20T12:07:42.016Z,67.84
2019-05-20T12:11:46.884Z,67.65
2019-05-20T12:15:51.783Z,67.58
2019-05-20T12:19:57.746Z,69.09
2019-05-20T12:24:02.653Z,69.54
2019-05-20T12:28:07.543Z,69.34
2019-05-20T12:32:12.459Z,70.32
2019-05-20T12:36:18.313Z,71.37
2019-05-20T12:40:23.281Z,71.32
2019-05-20T12:44:28.171Z,70.82
2019-05-20T12:48:33.068Z,71.81
2019-05-20T12:52:39.104Z,71.66
2019-05-20T12:56:44.758Z,71.67
2019-05-20T13:00:50.027Z,71.47
2019-05-20T13:04:54.911Z,72.97
2019-05-20T13:08:59.815Z,74.49
2019-05-20T13:13:04.735Z,76.26
2019-05-20T13:17:09.603Z,76.58
2019-05-20T13:21:14.504Z,77.27
2019-05-20T13:25:20.930Z,78.04
2019-05-20T13:29:25.860Z,78.93
2019-05-20T13:33:30.743Z,78.75
2019-05-20T13:37:35.638Z,79.18
2019-05-20T13:41:40.538Z,80.01
2019-05-20T13:45:48.030Z,79.63
2019-05-20T13:49:52.140Z,79.60
2019-05-20T13:53:57.036Z,79.34
2019-05-20T13:58:02.073Z,78.87
2019-05-20T14:02:06.868Z,79.33
2019-05-20T14:06:11.808Z,80.51
2019-05-20T14:10:17.129Z,82.81
2019-05-20T14:14:22.018Z,83.37
2019-05-20T14:18:26.924Z,83.61
2019-05-20T14:22:31.812Z,83.66
2019-05-20T14:26:36.811Z,84.33
2019-05-20T14:30:41.711Z,85.22
2019-05-20T14:34:46.599Z,85.78
2019-05-20T14:38:51.499Z,86.32
2019-05-20T14:42:56.394Z,86.30
2019-05-20T14:47:01.319Z,86.35
2019-05-20T14:51:06.191Z,86.12
2019-05-20T14:55:11.235Z,86.50
2019-05-20T14:59:16.201Z,84.66
2019-05-20T15:03:21.114Z,83.03
2019-05-20T15:07:30.595Z,82.29
2019-05-20T15:11:38.097Z,83.60
2019-05-20T15:15:39.198Z,84.60
2019-05-20T15:19:44.092Z,85.77
2019-05-20T15:23:49.056Z,85.90
2019-05-20T15:27:54.780Z,85.69
2019-05-20T15:31:59.679Z,85.34
2019-05-20T15:36:04.732Z,85.59
2019-05-20T15:40:09.952Z,85.64
2019-05-20T15:44:14.839Z,86.09
2019-05-20T15:48:19.733Z,86.88
2019-05-20T15:52:24.716Z,87.47
2019-05-20T15:56:29.620Z,87.85
2019-05-20T16:00:34.525Z,88.24
2019-05-20T16:04:39.434Z,88.25
2019-05-20T16:08:44.336Z,88.36
2019-05-20T16:12:49.237Z,88.44
2019-05-20T16:16:54.132Z,88.57
2019-05-20T16:20:59.047Z,88.84
2019-05-20T16:25:08.494Z,89.09
2019-05-20T16:29:13.390Z,89.44
2019-05-20T16:33:18.278Z,89.95
2019-05-20T16:37:23.181Z,90.54
2019-05-20T16:41:28.076Z,90.72
2019-05-20T16:45:32.980Z,91.05
2019-05-20T16:49:37.876Z,91.28
2019-05-20T16:53:42.849Z,91.29
2019-05-20T16:57:47.688Z,91.10
2019-05-20T17:01:52.571Z,91.09
2019-05-20T17:05:57.477Z,90.69
2019-05-20T17:10:02.736Z,90.53
2019-05-20T17:14:10.592Z,90.42
2019-05-20T17:18:14.342Z,90.37
2019-05-20T17:22:19.237Z,90.33
2019-05-20T17:26:24.146Z,90.75
2019-05-20T17:30:29.033Z,90.56
2019-05-20T17:34:33.927Z,90.43
2019-05-20T17:38:38.823Z,91.09
2019-05-20T17:42:43.722Z,91.58
2019-05-20T17:46:48.686Z,91.76
2019-05-20T17:50:53.919Z,91.80
2019-05-20T17:54:59.783Z,91.88
2019-05-20T17:59:04.743Z,91.93
2019-05-20T18:03:09.648Z,92.20
2019-05-20T18:07:14.547Z,91.71
2019-05-20T18:11:19.576Z,91.70
2019-05-20T18:15:24.428Z,92.00
2019-05-20T18:19:29.322Z,92.07
2019-05-20T18:23:34.222Z,92.17
2019-05-20T18:27:39.349Z,92.54
2019-05-20T18:31:44.304Z,92.90
2019-05-20T18:35:49.212Z,92.97
2019-05-20T18:39:54.247Z,93.08
2019-05-20T18:43:59.150Z,94.41
2019-05-20T18:48:04.050Z,94.41
2019-05-20T18:52:08.947Z,94.91
2019-05-20T18:56:13.833Z,95.71
2019-05-20T19:00:19.546Z,96.15
2019-05-20T19:04:24.438Z,96.30
2019-05-20T19:08:29.400Z,96.64
2019-05-20T19:12:34.318Z,96.95
2019-05-20T19:16:39.208Z,97.31
2019-05-20T19:20:44.108Z,97.78
2019-05-20T19:24:49.004Z,98.14
2019-05-20T19:28:53.915Z,98.61
2019-05-20T19:32:58.806Z,98.94
2019-05-20T19:37:03.704Z,99.27
2019-05-20T19:41:08.670Z,99.61
2019-05-20T19:45:13.824Z,99.70
2019-05-20T19:49:18.726Z,99.70
2019-05-20T19:53:23.621Z,100.00
2019-05-20T19:57:29.588Z,100.00
2019-05-20T20:01:34.493Z,100.00
2019-05-20T20:05:39.394Z,100.00
2019-05-20T20:09:44.303Z,100.00
2019-05-20T20:13:49.216Z,100.00
2019-05-20T20:17:54.112Z,100.00
2019-05-20T20:21:59.078Z,100.00
2019-05-20T20:26:04.031Z,100.00
2019-05-20T20:30:09.473Z,100.00
2019-05-20T20:34:14.527Z,100.00
2019-05-20T20:38:19.414Z,100.00
2019-05-20T20:42:24.321Z,100.00
2019-05-20T20:46:29.225Z,100.00
2019-05-20T20:50:34.203Z,100.00
2019-05-20T20:54:39.106Z,100.00
2019-05-20T20:58:44.006Z,100.00
2019-05-20T21:02:53.145Z,100.00
2019-05-20T21:06:55.511Z,100.00
2019-05-20T21:11:00.414Z,100.00
2019-05-20T21:15:05.757Z,100.00
2019-05-20T21:19:10.655Z,100.00
2019-05-20T21:23:15.551Z,100.00
2019-05-20T21:27:20.469Z,100.00
2019-05-20T21:31:25.440Z,100.00
2019-05-20T21:35:30.343Z,100.00
2019-05-20T21:39:35.235Z,100.00
2019-05-20T21:43:40.144Z,100.00
2019-05-20T21:47:45.042Z,100.00
2019-05-20T21:51:49.948Z,100.00
2019-05-20T21:55:54.953Z,100.00
2019-05-20T21:59:59.847Z,100.00
2019-05-20T22:04:04.759Z,100.00
2019-05-20T22:08:09.663Z,100.00
2019-05-20T22:12:14.587Z,100.00
2019-05-20T22:16:19.509Z,100.00
2019-05-20T22:20:24.394Z,100.00
2019-05-20T22:24:29.303Z,100.00
2019-05-20T22:28:34.206Z,100.00
2019-05-20T22:32:39.105Z,100.00
2019-05-20T22:36:44.013Z,100.00
2019-05-20T22:40:48.908Z,100.00
2019-05-20T22:44:53.815Z,100.00
2019-05-20T22:48:58.733Z,100.00
2019-05-20T22:53:03.646Z,100.00
2019-05-20T22:57:08.543Z,100.00
2019-05-20T23:01:13.433Z,100.00
2019-05-20T23:05:18.342Z,100.00
2019-05-20T23:09:24.218Z,100.00
2019-05-20T23:13:29.146Z,100.00
2019-05-20T23:17:34.049Z,100.00
2019-05-20T23:21:38.937Z,100.00
2019-05-20T23:25:43.852Z,100.00
2019-05-20T23:29:48.757Z,100.00
2019-05-20T23:33:53.667Z,100.00
2019-05-20T23:37:58.573Z,100.00
2019-05-20T23:42:03.467Z,100.00
2019-05-20T23:46:08.368Z,100.00
2019-05-20T23:50:13.970Z,100.00
2019-05-20T23:54:18.857Z,100.00
2019-05-20T23:58:23.761Z,100.00
